Time,TemperatureF,DewpointF,PressureIn,WindDirection,WindDirectionDegrees,WindSpeedMPH,WindSpeedGustMPH,Humidity,HourlyPrecipIn,Conditions,Clouds,dailyrainin,SoftwareType,DateUTC
2013-02-04 00:10:00,24.4,17.3,29.67,NNE,13,0.0,0.0,74,0.00,,,0.00,Wunderground v.1.15,2013-02-04 05:10:00,
2013-02-04 00:20:00,24.7,17.6,29.67,NNW,346,0.0,0.0,74,0.00,,,0.00,Wunderground v.1.15,2013-02-04 05:20:00,
2013-02-04 00:30:00,24.8,17.4,29.67,East,93,1.0,2.0,73,0.00,,,0.00,Wunderground v.1.15,2013-02-04 05:30:00,
2013-02-04 00:40:00,24.8,17.4,29.67,NE,49,1.0,1.0,73,0.00,,,0.00,Wunderground v.1.15,2013-02-04 05:40:00,
2013-02-04 00:50:00,24.7,17.3,29.67,North,359,1.0,1.0,73,0.00,,,0.00,Wunderground v.1.15,2013-02-04 05:50:00,
2013-02-04 01:00:00,24.7,17.6,29.67,East,89,1.0,3.0,74,0.00,,,0.00,Wunderground v.1.15,2013-02-04 06:00:00,
2013-02-04 01:10:00,24.7,17.9,29.67,South,174,1.0,3.0,75,0.00,,,0.00,Wunderground v.1.15,2013-02-04 06:10:00,
2013-02-04 01:20:00,24.7,17.9,29.67,NE,52,1.0,1.0,75,0.00,,,0.00,Wunderground v.1.15,2013-02-04 06:20:00,
2013-02-04 01:30:00,24.5,17.7,29.67,East,95,1.0,3.0,75,0.00,,,0.00,Wunderground v.1.15,2013-02-04 06:30:00,
2013-02-04 01:40:00,24.5,18.3,29.67,ESE,104,0.0,0.0,77,0.00,,,0.00,Wunderground v.1.15,2013-02-04 06:40:00,
2013-02-04 01:50:00,24.5,18.3,29.68,South,189,0.0,0.0,77,0.00,,,0.00,Wunderground v.1.15,2013-02-04 06:50:00,
2013-02-04 02:00:00,24.7,18.5,29.68,ESE,113,1.0,1.0,77,0.00,,,0.00,Wunderground v.1.15,2013-02-04 07:00:00,
2013-02-04 02:10:00,25.0,18.8,29.68,SSW,213,2.0,2.0,77,0.00,,,0.00,Wunderground v.1.15,2013-02-04 07:10:00,
2013-02-04 02:20:00,25.1,13.5,29.68,SW,226,2.0,2.0,61,0.00,,,0.00,Wunderground v.1.15,2013-02-04 07:20:00,
2013-02-04 02:30:00,24.8,13.2,29.69,North,0,2.0,2.0,61,0.00,,,0.00,Wunderground v.1.15,2013-02-04 07:30:00,
2013-02-04 02:40:00,24.5,12.6,29.69,NE,54,1.0,1.0,60,0.00,,,0.00,Wunderground v.1.15,2013-02-04 07:40:00,
2013-02-04 02:50:00,24.1,12.2,29.69,East,93,1.0,1.0,60,0.00,,,0.00,Wunderground v.1.15,2013-02-04 07:50:00,
2013-02-04 03:00:00,24.1,13.3,29.69,South,169,0.0,0.0,63,0.00,,,0.00,Wunderground v.1.15,2013-02-04 08:00:00,
2013-02-04 03:10:00,24.1,13.3,29.69,West,280,1.0,1.0,63,0.00,,,0.00,Wunderground v.1.15,2013-02-04 08:10:00,
2013-02-04 03:20:00,23.8,11.9,29.69,NE,52,1.0,7.0,60,0.00,,,0.00,Wunderground v.1.15,2013-02-04 08:20:00,
2013-02-04 03:30:00,23.6,12.1,29.70,SSW,200,1.0,3.0,61,0.00,,,0.00,Wunderground v.1.15,2013-02-04 08:30:00,
2013-02-04 03:40:00,23.5,12.0,29.70,West,263,2.0,2.0,61,0.00,,,0.00,Wunderground v.1.15,2013-02-04 08:40:00,
2013-02-04 03:50:00,23.3,12.2,29.70,SW,233,1.0,1.0,62,0.00,,,0.00,Wunderground v.1.15,2013-02-04 08:50:00,
2013-02-04 04:00:00,22.9,12.2,29.71,South,186,0.0,1.0,63,0.00,,,0.00,Wunderground v.1.15,2013-02-04 09:00:00,
2013-02-04 04:10:00,22.9,11.1,29.71,NE,54,2.0,11.0,60,0.00,,,0.00,Wunderground v.1.15,2013-02-04 09:10:00,
2013-02-04 04:20:00,22.9,11.4,29.72,West,268,1.0,1.0,61,0.00,,,0.00,Wunderground v.1.15,2013-02-04 09:20:00,
2013-02-04 04:30:00,22.7,11.3,29.73,South,182,1.0,1.0,61,0.00,,,0.00,Wunderground v.1.15,2013-02-04 09:30:00,
2013-02-04 04:40:00,22.4,10.2,29.73,NE,48,1.0,1.0,59,0.00,,,0.00,Wunderground v.1.15,2013-02-04 09:40:00,
2013-02-04 04:50:00,22.2,9.7,29.74,WSW,254,1.0,1.0,58,0.00,,,0.00,Wunderground v.1.15,2013-02-04 09:50:00,
2013-02-04 05:00:00,21.9,10.5,29.74,ESE,121,0.0,1.0,61,0.00,,,0.00,Wunderground v.1.15,2013-02-04 10:00:00,
2013-02-04 05:10:00,22.1,9.2,29.74,SSE,158,2.0,2.0,57,0.00,,,0.00,Wunderground v.1.15,2013-02-04 10:10:00,
2013-02-04 05:20:00,21.8,9.3,29.75,SW,224,1.0,1.0,58,0.00,,,0.00,Wunderground v.1.15,2013-02-04 10:20:00,
2013-02-04 05:30:00,21.6,9.1,29.76,SW,223,1.0,1.0,58,0.00,,,0.00,Wunderground v.1.15,2013-02-04 10:30:00,
2013-02-04 05:40:00,21.1,8.6,29.76,WSW,244,0.0,1.0,58,0.00,,,0.00,Wunderground v.1.15,2013-02-04 10:40:00,
2013-02-04 05:50:00,21.3,7.6,29.76,NE,34,2.0,2.0,55,0.00,,,0.00,Wunderground v.1.15,2013-02-04 10:50:00,
2013-02-04 06:00:00,21.1,7.4,29.76,ENE,72,1.0,7.0,55,0.00,,,0.00,Wunderground v.1.15,2013-02-04 11:00:00,
2013-02-04 06:10:00,21.1,7.0,29.76,SSW,198,2.0,2.0,54,0.00,,,0.00,Wunderground v.1.15,2013-02-04 11:10:00,
2013-02-04 06:20:00,21.3,6.8,29.77,SSE,167,2.0,2.0,53,0.00,,,0.00,Wunderground v.1.15,2013-02-04 11:20:00,
2013-02-04 06:30:00,21.1,7.0,29.77,SSE,161,2.0,2.0,54,0.00,,,0.00,Wunderground v.1.15,2013-02-04 11:30:00,
2013-02-04 06:40:00,20.8,7.2,29.77,South,186,1.0,1.0,55,0.00,,,0.00,Wunderground v.1.15,2013-02-04 11:40:00,
2013-02-04 06:50:00,20.5,7.3,29.79,SW,220,0.0,0.0,56,0.00,,,0.00,Wunderground v.1.15,2013-02-04 11:50:00,
2013-02-04 07:00:00,20.3,6.7,29.79,ENE,75,1.0,1.0,55,0.00,,,0.00,Wunderground v.1.15,2013-02-04 12:00:00,
2013-02-04 07:10:00,20.5,7.3,29.79,SE,128,1.0,1.0,56,0.00,,,0.00,Wunderground v.1.15,2013-02-04 12:10:00,
2013-02-04 07:20:00,20.0,7.6,29.79,South,169,0.0,0.0,58,0.00,,,0.00,Wunderground v.1.15,2013-02-04 12:20:00,
2013-02-04 07:30:00,19.9,6.7,29.80,North,359,0.0,5.0,56,0.00,,,0.00,Wunderground v.1.15,2013-02-04 12:30:00,
2013-02-04 07:40:00,20.2,7.8,29.80,East,83,1.0,1.0,58,0.00,,,0.00,Wunderground v.1.15,2013-02-04 12:40:00,
2013-02-04 07:50:00,20.3,6.7,29.80,North,354,1.0,1.0,55,0.00,,,0.00,Wunderground v.1.15,2013-02-04 12:50:00,
2013-02-04 08:00:00,20.5,7.3,29.81,NE,40,0.0,5.0,56,0.00,,,0.00,Wunderground v.1.15,2013-02-04 13:00:00,
2013-02-04 08:10:00,21.1,6.6,29.81,West,278,1.0,1.0,53,0.00,,,0.00,Wunderground v.1.15,2013-02-04 13:10:00,
2013-02-04 08:20:00,21.4,8.1,29.81,NNE,30,0.0,0.0,56,0.00,,,0.00,Wunderground v.1.15,2013-02-04 13:20:00,
2013-02-04 08:30:00,21.9,7.8,29.82,ENE,71,1.0,1.0,54,0.00,,,0.00,Wunderground v.1.15,2013-02-04 13:30:00,
2013-02-04 08:40:00,22.2,6.8,29.82,SW,216,1.0,3.0,51,0.00,,,0.00,Wunderground v.1.15,2013-02-04 13:40:00,
2013-02-04 08:50:00,22.7,6.4,29.81,SSW,210,2.0,2.0,49,0.00,,,0.00,Wunderground v.1.15,2013-02-04 13:50:00,
2013-02-04 09:00:00,23.0,7.1,29.82,ENE,64,2.0,2.0,50,0.00,,,0.00,Wunderground v.1.15,2013-02-04 14:00:00,
2013-02-04 09:10:00,23.3,7.4,29.82,ENE,76,2.0,2.0,50,0.00,,,0.00,Wunderground v.1.15,2013-02-04 14:10:00,
2013-02-04 09:20:00,23.6,5.8,29.81,NE,48,2.0,2.0,46,0.00,,,0.00,Wunderground v.1.15,2013-02-04 14:20:00,
2013-02-04 09:30:00,24.1,6.7,29.81,SSE,147,2.0,2.0,47,0.00,,,0.00,Wunderground v.1.15,2013-02-04 14:30:00,
2013-02-04 09:40:00,24.7,7.3,29.81,North,359,2.0,2.0,47,0.00,,,0.00,Wunderground v.1.15,2013-02-04 14:40:00,
2013-02-04 09:50:00,25.4,6.5,29.81,SW,220,1.0,1.0,44,0.00,,,0.00,Wunderground v.1.15,2013-02-04 14:50:00,
2013-02-04 10:00:00,25.4,5.5,29.81,NW,308,3.0,3.0,42,0.00,,,0.00,Wunderground v.1.15,2013-02-04 15:00:00,
2013-02-04 10:10:00,25.8,6.9,29.81,SSE,164,1.0,1.0,44,0.00,,,0.00,Wunderground v.1.15,2013-02-04 15:10:00,
2013-02-04 10:20:00,26.0,7.0,29.81,West,263,2.0,2.0,44,0.00,,,0.00,Wunderground v.1.15,2013-02-04 15:20:00,
2013-02-04 10:30:00,27.2,7.6,29.81,East,85,1.0,1.0,43,0.00,,,0.00,Wunderground v.1.15,2013-02-04 15:30:00,
2013-02-04 10:40:00,27.8,6.0,29.81,SSW,210,1.0,3.0,39,0.00,,,0.00,Wunderground v.1.15,2013-02-04 15:40:00,
2013-02-04 10:50:00,27.5,6.8,29.81,WNW,289,1.0,2.0,41,0.00,,,0.00,Wunderground v.1.15,2013-02-04 15:50:00,
2013-02-04 11:00:00,27.5,6.8,29.81,SSW,202,1.0,2.0,41,0.00,,,0.00,Wunderground v.1.15,2013-02-04 16:00:00,
2013-02-04 11:10:00,27.6,4.7,29.81,WSW,250,2.0,2.0,37,0.00,,,0.00,Wunderground v.1.15,2013-02-04 16:10:00,
2013-02-04 11:20:00,28.1,5.7,29.80,ESE,119,2.0,2.0,38,0.00,,,0.00,Wunderground v.1.15,2013-02-04 16:20:00,
2013-02-04 11:30:00,27.9,6.1,29.80,ESE,119,2.0,2.0,39,0.00,,,0.00,Wunderground v.1.15,2013-02-04 16:30:00,
2013-02-04 11:40:00,28.4,5.4,29.80,NW,308,2.0,2.0,37,0.00,,,0.00,Wunderground v.1.15,2013-02-04 16:40:00,
2013-02-04 11:50:00,28.1,4.5,29.79,West,271,2.0,5.0,36,0.00,,,0.00,Wunderground v.1.15,2013-02-04 16:50:00,
2013-02-04 12:00:00,27.2,4.9,29.78,NNE,20,2.0,2.0,38,0.00,,,0.00,Wunderground v.1.15,2013-02-04 17:00:00,
2013-02-04 12:10:00,28.2,6.9,29.78,ESE,107,1.0,3.0,40,0.00,,,0.00,Wunderground v.1.15,2013-02-04 17:10:00,
2013-02-04 12:20:00,27.8,4.9,29.77,ESE,112,2.0,2.0,37,0.00,,,0.00,Wunderground v.1.15,2013-02-04 17:20:00,
2013-02-04 12:30:00,28.5,5.5,29.76,East,80,1.0,7.0,37,0.00,,,0.00,Wunderground v.1.15,2013-02-04 17:30:00,
2013-02-04 12:40:00,30.4,4.7,29.76,ESE,120,3.0,3.0,33,0.00,,,0.00,Wunderground v.1.15,2013-02-04 17:40:00,
2013-02-04 12:50:00,29.3,5.6,29.77,NE,51,2.0,2.0,36,0.00,,,0.00,Wunderground v.1.15,2013-02-04 17:50:00,
2013-02-04 13:00:00,28.5,4.3,29.76,East,79,2.0,2.0,35,0.00,,,0.00,Wunderground v.1.15,2013-02-04 18:00:00,
2013-02-04 13:10:00,27.9,3.7,29.76,NNW,336,2.0,2.0,35,0.00,,,0.00,Wunderground v.1.15,2013-02-04 18:10:00,
2013-02-04 13:20:00,29.3,6.8,29.75,East,79,2.0,2.0,38,0.00,,,0.00,Wunderground v.1.15,2013-02-04 18:20:00,
2013-02-04 13:30:00,29.0,5.3,29.76,West,277,3.0,4.0,36,0.00,,,0.00,Wunderground v.1.15,2013-02-04 18:30:00,
2013-02-04 13:40:00,29.7,8.3,29.76,NE,52,2.0,2.0,40,0.00,,,0.00,Wunderground v.1.15,2013-02-04 18:40:00,
2013-02-04 13:50:00,29.1,6.6,29.75,ESE,120,3.0,3.0,38,0.00,,,0.00,Wunderground v.1.15,2013-02-04 18:50:00,
2013-02-04 14:00:00,28.8,4.5,29.74,SE,145,2.0,2.0,35,0.00,,,0.00,Wunderground v.1.15,2013-02-04 19:00:00,
2013-02-04 14:10:00,29.1,6.0,29.74,ESE,116,2.0,2.0,37,0.00,,,0.00,Wunderground v.1.15,2013-02-04 19:10:00,
2013-02-04 14:20:00,29.8,7.8,29.74,SSE,164,2.0,5.0,39,0.00,,,0.00,Wunderground v.1.15,2013-02-04 19:20:00,
2013-02-04 14:30:00,30.0,5.0,29.74,SE,144,3.0,3.0,34,0.00,,,0.00,Wunderground v.1.15,2013-02-04 19:30:00,
2013-02-04 14:40:00,30.1,6.3,29.74,SE,124,2.0,2.0,36,0.00,,,0.00,Wunderground v.1.15,2013-02-04 19:40:00,
2013-02-04 14:50:00,28.1,4.5,29.74,SSE,157,2.0,2.0,36,0.00,,,0.00,Wunderground v.1.15,2013-02-04 19:50:00,
2013-02-04 15:00:00,28.5,5.5,29.73,North,0,2.0,7.0,37,0.00,,,0.00,Wunderground v.1.15,2013-02-04 20:00:00,
2013-02-04 15:10:00,29.7,6.0,29.73,ENE,62,1.0,1.0,36,0.00,,,0.00,Wunderground v.1.15,2013-02-04 20:10:00,
2013-02-04 15:20:00,29.3,6.2,29.73,NW,304,3.0,3.0,37,0.00,,,0.00,Wunderground v.1.15,2013-02-04 20:20:00,
2013-02-04 15:30:00,28.2,4.0,29.73,ESE,114,2.0,2.0,35,0.00,,,0.00,Wunderground v.1.15,2013-02-04 20:30:00,
2013-02-04 15:40:00,28.8,5.8,29.73,North,0,2.0,3.0,37,0.00,,,0.00,Wunderground v.1.15,2013-02-04 20:40:00,
2013-02-04 15:50:00,28.8,4.5,29.73,North,359,2.0,5.0,35,0.00,,,0.00,Wunderground v.1.15,2013-02-04 20:50:00,
2013-02-04 16:00:00,29.7,5.3,29.74,NE,41,1.0,5.0,35,0.00,,,0.00,Wunderground v.1.15,2013-02-04 21:00:00,
2013-02-04 16:10:00,29.0,4.7,29.74,SSW,203,1.0,1.0,35,0.00,,,0.00,Wunderground v.1.15,2013-02-04 21:10:00,
2013-02-04 16:20:00,28.8,6.3,29.74,West,264,1.0,1.0,38,0.00,,,0.00,Wunderground v.1.15,2013-02-04 21:20:00,
2013-02-04 16:30:00,28.5,5.5,29.75,East,100,1.0,1.0,37,0.00,,,0.00,Wunderground v.1.15,2013-02-04 21:30:00,
2013-02-04 16:40:00,28.1,5.1,29.75,WNW,287,1.0,1.0,37,0.00,,,0.00,Wunderground v.1.15,2013-02-04 21:40:00,
2013-02-04 16:50:00,27.6,6.4,29.75,SSW,205,1.0,2.0,40,0.00,,,0.00,Wunderground v.1.15,2013-02-04 21:50:00,
2013-02-04 17:00:00,27.3,6.7,29.76,SSE,168,1.0,1.0,41,0.00,,,0.00,Wunderground v.1.15,2013-02-04 22:00:00,
2013-02-04 17:10:00,27.0,6.4,29.76,NNW,343,1.0,1.0,41,0.00,,,0.00,Wunderground v.1.15,2013-02-04 22:10:00,
2013-02-04 17:20:00,26.9,6.3,29.77,NE,42,1.0,1.0,41,0.00,,,0.00,Wunderground v.1.15,2013-02-04 22:20:00,
2013-02-04 17:30:00,26.7,5.6,29.78,SSW,208,1.0,1.0,40,0.00,,,0.00,Wunderground v.1.15,2013-02-04 22:30:00,
2013-02-04 17:40:00,26.6,5.5,29.78,SW,227,1.0,1.0,40,0.00,,,0.00,Wunderground v.1.15,2013-02-04 22:40:00,
2013-02-04 17:50:00,26.4,7.4,29.79,SSE,155,0.0,0.0,44,0.00,,,0.00,Wunderground v.1.15,2013-02-04 22:50:00,
2013-02-04 18:00:00,26.0,6.5,29.79,SSW,192,0.0,0.0,43,0.00,,,0.00,Wunderground v.1.15,2013-02-04 23:00:00,
2013-02-04 18:10:00,26.1,7.1,29.79,NE,51,1.0,1.0,44,0.00,,,0.00,Wunderground v.1.15,2013-02-04 23:10:00,
2013-02-04 18:20:00,26.0,6.5,29.80,ENE,62,0.0,0.0,43,0.00,,,0.00,Wunderground v.1.15,2013-02-04 23:20:00,
2013-02-04 18:30:00,26.0,7.0,29.81,ENE,66,1.0,1.0,44,0.00,,,0.00,Wunderground v.1.15,2013-02-04 23:30:00,
2013-02-04 18:40:00,26.0,7.0,29.81,ESE,113,0.0,0.0,44,0.00,,,0.00,Wunderground v.1.15,2013-02-04 23:40:00,
2013-02-04 18:50:00,26.0,7.5,29.81,West,264,1.0,1.0,45,0.00,,,0.00,Wunderground v.1.15,2013-02-04 23:50:00,
2013-02-04 19:00:00,26.0,7.0,29.82,North,359,0.0,0.0,44,0.00,,,0.00,Wunderground v.1.15,2013-02-05 00:00:00,
2013-02-04 19:10:00,25.8,6.9,29.82,East,99,1.0,1.0,44,0.00,,,0.00,Wunderground v.1.15,2013-02-05 00:10:00,
2013-02-04 19:20:00,25.8,7.8,29.82,SSW,210,0.0,0.0,46,0.00,,,0.00,Wunderground v.1.15,2013-02-05 00:20:00,
2013-02-04 19:30:00,25.8,7.4,29.82,North,0,0.0,0.0,45,0.00,,,0.00,Wunderground v.1.15,2013-02-05 00:30:00,
2013-02-04 19:40:00,25.8,6.9,29.82,North,0,0.0,0.0,44,0.00,,,0.00,Wunderground v.1.15,2013-02-05 00:40:00,
2013-02-04 19:50:00,25.7,8.7,29.83,East,85,0.0,0.0,48,0.00,,,0.00,Wunderground v.1.15,2013-02-05 00:50:00,
2013-02-04 20:00:00,25.7,7.7,29.83,East,100,0.0,1.0,46,0.00,,,0.00,Wunderground v.1.15,2013-02-05 01:00:00,
2013-02-04 20:10:00,25.6,7.7,29.83,ESE,102,0.0,0.0,46,0.00,,,0.00,Wunderground v.1.15,2013-02-05 01:10:00,
2013-02-04 20:20:00,25.4,7.5,29.82,East,82,0.0,0.0,46,0.00,,,0.00,Wunderground v.1.15,2013-02-05 01:20:00,
2013-02-04 20:30:00,25.4,8.4,29.83,East,82,0.0,0.0,48,0.00,,,0.00,Wunderground v.1.15,2013-02-05 01:30:00,
2013-02-04 20:40:00,25.4,8.4,29.83,East,80,0.0,0.0,48,0.00,,,0.00,Wunderground v.1.15,2013-02-05 01:40:00,
2013-02-04 20:50:00,25.6,8.6,29.83,North,359,0.0,0.0,48,0.00,,,0.00,Wunderground v.1.15,2013-02-05 01:50:00,
2013-02-04 21:00:00,25.6,7.7,29.83,North,357,0.0,0.0,46,0.00,,,0.00,Wunderground v.1.15,2013-02-05 02:00:00,
2013-02-04 21:10:00,25.6,7.7,29.83,North,353,0.0,0.0,46,0.00,,,0.00,Wunderground v.1.15,2013-02-05 02:10:00,
2013-02-04 21:20:00,25.4,7.5,29.83,NE,55,1.0,1.0,46,0.00,,,0.00,Wunderground v.1.15,2013-02-05 02:20:00,
2013-02-04 21:30:00,25.4,7.9,29.83,ENE,58,0.0,0.0,47,0.00,,,0.00,Wunderground v.1.15,2013-02-05 02:30:00,
2013-02-04 21:40:00,25.4,7.9,29.83,ENE,58,0.0,1.0,47,0.00,,,0.00,Wunderground v.1.15,2013-02-05 02:40:00,
2013-02-04 21:50:00,25.4,7.9,29.83,NE,40,0.0,0.0,47,0.00,,,0.00,Wunderground v.1.15,2013-02-05 02:50:00,
2013-02-04 22:00:00,25.6,8.1,29.84,NNE,30,1.0,1.0,47,0.00,,,0.00,Wunderground v.1.15,2013-02-05 03:00:00,
2013-02-04 22:10:00,25.6,8.1,29.84,NNE,30,0.0,0.0,47,0.00,,,0.00,Wunderground v.1.15,2013-02-05 03:10:00,
2013-02-04 22:20:00,25.4,7.9,29.83,NNE,30,0.0,0.0,47,0.00,,,0.00,Wunderground v.1.15,2013-02-05 03:20:00,
2013-02-04 22:30:00,25.3,8.8,29.83,North,3,0.0,0.0,49,0.00,,,0.00,Wunderground v.1.15,2013-02-05 03:30:00,
2013-02-04 22:40:00,24.8,8.8,29.83,North,4,0.0,0.0,50,0.00,,,0.00,Wunderground v.1.15,2013-02-05 03:40:00,
2013-02-04 22:50:00,24.7,10.4,29.83,North,6,0.0,0.0,54,0.00,,,0.00,Wunderground v.1.15,2013-02-05 03:50:00,
2013-02-04 23:00:00,25.0,9.8,29.84,North,6,0.0,0.0,52,0.00,,,0.00,Wunderground v.1.15,2013-02-05 04:00:00,
2013-02-04 23:10:00,25.0,9.8,29.84,North,4,0.0,0.0,52,0.00,,,0.00,Wunderground v.1.15,2013-02-05 04:10:00,
2013-02-04 23:20:00,25.0,9.8,29.83,North,6,0.0,0.0,52,0.00,,,0.00,Wunderground v.1.15,2013-02-05 04:20:00,
2013-02-04 23:30:00,25.1,9.5,29.83,North,6,0.0,0.0,51,0.00,,,0.00,Wunderground v.1.15,2013-02-05 04:30:00,
2013-02-04 23:40:00,25.4,9.8,29.83,North,4,0.0,0.0,51,0.00,,,0.00,Wunderground v.1.15,2013-02-05 04:40:00,
2013-02-04 23:50:00,25.6,9.5,29.83,North,6,0.0,0.0,50,0.00,,,0.00,Wunderground v.1.15,2013-02-05 04:50:00,